Time;durP1;ratioP1;P1;durP2;ratioP2;P2;SDS_P1;SDS_P2;PMS_P1;PMS_P2;Temp;Humidity;BMP_temperature;BMP_pressure;BME280_temperature;BME280_humidity;BME280_pressure;Samples;Min_cycle;Max_cycle;Signal;HPM_P1;HPM_P2
2023/05/21 00:01:18;;;;;;;6.57;3.80;;;16.10;99.90;;;;;;7286802;19;20228;-89
2023/05/21 00:03:48;;;;;;;8.03;3.70;;;16.00;99.90;;;;;;7286983;19;20189;-90
2023/05/21 00:06:14;;;;;;;7.73;4.03;;;16.10;99.90;;;;;;7287648;19;20687;-89
2023/05/21 00:08:41;;;;;;;7.27;4.30;;;16.10;99.90;;;;;;7287606;19;20244;-90
2023/05/21 00:11:07;;;;;;;10.50;4.63;;;16.10;99.90;;;;;;7287475;19;20189;-89
2023/05/21 00:13:33;;;;;;;9.73;4.03;;;16.10;99.90;;;;;;7287093;19;20288;-88
2023/05/21 00:15:59;;;;;;;9.20;4.03;;;16.00;99.90;;;;;;7297483;19;20197;-87
2023/05/21 00:18:25;;;;;;;7.00;3.83;;;15.90;99.90;;;;;;7306604;19;20201;-89
2023/05/21 00:20:51;;;;;;;6.57;4.10;;;16.00;99.90;;;;;;7286631;19;20188;-90
2023/05/21 00:23:18;;;;;;;8.43;3.93;;;15.90;99.90;;;;;;7284697;19;20220;-90
2023/05/21 00:25:45;;;;;;;7.50;4.00;;;15.90;99.90;;;;;;7286149;19;20192;-89
2023/05/21 00:28:11;;;;;;;6.03;3.67;;;15.80;99.90;;;;;;7286178;19;20185;-90
2023/05/21 00:30:37;;;;;;;7.57;4.00;;;15.80;99.90;;;;;;7286282;19;20734;-89
2023/05/21 00:33:03;;;;;;;7.80;3.47;;;15.80;99.90;;;;;;7285953;19;20204;-90
2023/05/21 00:35:29;;;;;;;9.00;4.20;;;15.80;99.90;;;;;;7302803;19;20215;-89
2023/05/21 00:37:55;;;;;;;9.57;4.40;;;15.70;99.90;;;;;;7301326;19;20288;-90
2023/05/21 00:40:21;;;;;;;9.50;4.33;;;15.70;99.90;;;;;;7286230;19;20200;-89
2023/05/21 00:42:48;;;;;;;9.23;4.27;;;15.70;99.90;;;;;;7285721;19;20208;-90
2023/05/21 00:45:14;;;;;;;8.07;4.10;;;15.60;99.90;;;;;;7290534;19;20187;-89
2023/05/21 00:47:42;;;;;;;8.77;4.23;;;15.50;99.90;;;;;;7293732;19;20196;-89
2023/05/21 00:50:08;;;;;;;7.67;3.93;;;15.40;99.90;;;;;;7291573;19;20189;-89
2023/05/21 00:52:40;;;;;;;6.97;3.93;;;15.40;99.90;;;;;;7293727;19;20252;-89
2023/05/21 00:55:07;;;;;;;9.07;4.33;;;15.40;99.90;;;;;;7292970;19;20185;-88
2023/05/21 00:57:35;;;;;;;7.20;4.20;;;15.30;99.90;;;;;;7291805;19;20272;-88
2023/05/21 01:00:06;;;;;;;8.23;4.70;;;15.20;99.90;;;;;;7293456;19;20196;-89
2023/05/21 01:02:33;;;;;;;8.70;4.70;;;15.20;99.90;;;;;;7290775;19;20210;-89
2023/05/21 01:04:59;;;;;;;7.97;4.67;;;15.10;99.90;;;;;;7306851;19;20568;-88
2023/05/21 01:07:25;;;;;;;8.17;4.33;;;15.00;99.90;;;;;;7313280;19;20189;-88
2023/05/21 01:09:53;;;;;;;10.13;4.40;;;14.90;99.90;;;;;;7291357;19;20204;-89
2023/05/21 01:12:20;;;;;;;11.67;4.70;;;14.90;99.90;;;;;;7292641;19;20194;-88
2023/05/21 01:14:47;;;;;;;13.00;4.50;;;14.80;99.90;;;;;;7292190;19;20197;-90
2023/05/21 01:17:13;;;;;;;7.47;4.13;;;14.80;99.90;;;;;;7291806;19;20220;-89
2023/05/21 01:19:41;;;;;;;7.33;4.10;;;14.70;99.90;;;;;;7294016;19;20203;-90
2023/05/21 01:22:08;;;;;;;8.23;4.50;;;14.70;99.90;;;;;;7291482;19;20675;-89
2023/05/21 01:24:34;;;;;;;7.87;4.43;;;14.60;99.90;;;;;;7294140;19;20642;-88
2023/05/21 01:27:01;;;;;;;8.20;4.33;;;14.60;99.90;;;;;;7293088;19;20249;-89
2023/05/21 01:29:27;;;;;;;7.53;4.43;;;14.50;99.90;;;;;;7316807;19;20185;-89
2023/05/21 01:32:35;;;;;;;11.07;4.70;;;14.40;99.90;;;;;;7295517;19;20196;-89
2023/05/21 01:35:05;;;;;;;9.23;4.70;;;14.40;99.90;;;;;;7168076;19;2004548;-90
2023/05/21 01:37:35;;;;;;;9.20;4.90;;;14.60;99.90;;;;;;7290472;19;20652;-89
2023/05/21 01:40:15;;;;;;;10.57;5.10;;;14.70;99.90;;;;;;7291295;19;20189;-89
2023/05/21 01:42:44;;;;;;;9.00;4.77;;;14.60;99.90;;;;;;7290035;19;20285;-89
2023/05/21 01:45:11;;;;;;;7.60;4.40;;;14.60;99.90;;;;;;7291164;19;20222;-88
2023/05/21 01:47:38;;;;;;;9.00;4.17;;;14.60;99.90;;;;;;7291827;19;20187;-90
2023/05/21 01:50:05;;;;;;;8.87;4.53;;;14.50;99.90;;;;;;7288688;19;20316;-90
2023/05/21 01:52:31;;;;;;;8.77;4.23;;;14.40;99.90;;;;;;7292098;19;20189;-90
2023/05/21 01:54:58;;;;;;;11.33;4.90;;;14.20;99.90;;;;;;7312143;19;20195;-90
2023/05/21 01:57:25;;;;;;;8.83;5.10;;;14.10;99.90;;;;;;7289883;19;21683;-90
2023/05/21 01:59:52;;;;;;;8.67;4.87;;;14.10;99.90;;;;;;7290563;19;20223;-91
2023/05/21 02:02:18;;;;;;;7.70;4.30;;;14.10;99.90;;;;;;7289715;19;20199;-90
2023/05/21 02:04:45;;;;;;;8.67;4.63;;;14.10;99.90;;;;;;7291407;19;20727;-90
2023/05/21 02:07:13;;;;;;;7.57;4.83;;;14.10;99.90;;;;;;7291396;19;20191;-91
2023/05/21 02:09:39;;;;;;;7.77;4.40;;;14.10;99.90;;;;;;7289872;19;20177;-90
2023/05/21 02:12:06;;;;;;;8.70;4.77;;;14.00;99.90;;;;;;7291135;19;20191;-90
2023/05/21 02:14:35;;;;;;;8.00;4.20;;;14.00;99.90;;;;;;7290194;19;20180;-90
2023/05/21 02:17:00;;;;;;;7.40;4.40;;;13.80;99.90;;;;;;7289877;19;20189;-90
2023/05/21 02:19:26;;;;;;;7.30;4.57;;;13.70;99.90;;;;;;7312920;19;20643;-90
2023/05/21 02:21:52;;;;;;;10.20;4.40;;;13.70;99.90;;;;;;7289695;19;20184;-90
2023/05/21 02:24:18;;;;;;;9.47;4.87;;;13.80;99.90;;;;;;7289311;19;22424;-90
2023/05/21 02:26:45;;;;;;;9.20;5.20;;;13.80;99.90;;;;;;7291614;19;20245;-90
2023/05/21 02:29:11;;;;;;;10.23;4.43;;;13.90;99.90;;;;;;7287613;19;20216;-90
2023/05/21 02:31:37;;;;;;;7.90;4.47;;;13.90;99.90;;;;;;7290430;19;20186;-89
2023/05/21 02:34:03;;;;;;;9.23;5.23;;;13.90;99.90;;;;;;7291282;19;20225;-90
2023/05/21 02:36:32;;;;;;;9.20;5.10;;;13.90;99.90;;;;;;7307560;19;20188;-89
2023/05/21 02:38:57;;;;;;;10.57;5.20;;;13.90;99.90;;;;;;7312152;19;20202;-90
2023/05/21 02:41:23;;;;;;;9.70;5.30;;;13.90;99.90;;;;;;7289081;19;20234;-89
2023/05/21 02:43:49;;;;;;;8.20;4.90;;;13.90;99.90;;;;;;7290958;19;20223;-90
2023/05/21 02:46:16;;;;;;;10.83;4.40;;;13.90;99.90;;;;;;7292638;19;20185;-90
2023/05/21 02:48:41;;;;;;;8.30;4.77;;;13.90;99.90;;;;;;7291861;19;20199;-91
2023/05/21 02:51:07;;;;;;;9.27;4.87;;;13.90;99.90;;;;;;7290939;19;20185;-90
2023/05/21 02:53:33;;;;;;;9.77;4.30;;;13.90;99.90;;;;;;7290058;19;20676;-90
2023/05/21 02:55:59;;;;;;;9.70;4.53;;;13.80;99.90;;;;;;7306845;19;20187;-91
2023/05/21 02:58:25;;;;;;;8.30;4.93;;;13.80;99.90;;;;;;7301753;19;20191;-90
2023/05/21 03:00:52;;;;;;;8.17;4.63;;;13.80;99.90;;;;;;7288184;19;20199;-90
2023/05/21 03:03:18;;;;;;;9.63;5.30;;;13.80;99.90;;;;;;7287856;19;20195;-90
2023/05/21 03:05:44;;;;;;;9.20;5.23;;;13.80;99.90;;;;;;7289232;19;20203;-89
2023/05/21 03:08:11;;;;;;;8.47;5.00;;;13.90;99.90;;;;;;7288331;19;20517;-90
2023/05/21 03:10:37;;;;;;;9.93;5.17;;;14.00;99.90;;;;;;7288338;19;20272;-90
2023/05/21 03:13:04;;;;;;;9.37;4.90;;;13.90;99.90;;;;;;7288713;19;20220;-90
2023/05/21 03:15:32;;;;;;;9.43;5.03;;;13.90;99.90;;;;;;7293740;19;20191;-90
2023/05/21 03:17:58;;;;;;;12.23;5.93;;;13.90;99.90;;;;;;7309899;19;20208;-89
2023/05/21 03:20:24;;;;;;;10.30;5.30;;;14.00;99.90;;;;;;7288156;19;20190;-90
2023/05/21 03:22:51;;;;;;;11.50;5.10;;;14.00;99.90;;;;;;7286909;19;20209;-90
2023/05/21 03:25:17;;;;;;;13.73;5.43;;;14.00;99.90;;;;;;7288458;19;20250;-90
2023/05/21 03:27:44;;;;;;;10.83;5.80;;;14.10;99.90;;;;;;7288530;19;20210;-90
2023/05/21 03:30:29;;;;;;;8.40;5.23;;;14.20;99.90;;;;;;7278849;19;20187;-90
2023/05/21 03:33:15;;;;;;;9.67;4.93;;;14.20;99.90;;;;;;7288247;19;20202;-89
2023/05/21 03:35:42;;;;;;;8.83;5.70;;;14.10;99.90;;;;;;7287356;19;20252;-89
2023/05/21 03:38:08;;;;;;;9.03;5.50;;;14.00;99.90;;;;;;7286613;19;20742;-90
2023/05/21 03:40:33;;;;;;;9.63;5.30;;;14.00;99.90;;;;;;7291358;19;20202;-90
2023/05/21 03:42:59;;;;;;;7.97;4.90;;;13.80;99.90;;;;;;7303930;19;20195;-91
2023/05/21 03:45:26;;;;;;;9.63;5.70;;;13.70;99.90;;;;;;7310223;19;20201;-89
2023/05/21 03:48:17;;;;;;;9.00;5.10;;;13.70;99.90;;;;;;7185407;19;2004864;-90
2023/05/21 03:50:43;;;;;;;10.27;5.17;;;13.70;99.90;;;;;;7286239;19;20208;-90
2023/05/21 03:53:09;;;;;;;15.67;6.10;;;13.80;99.90;;;;;;7287503;19;20215;-89
2023/05/21 03:55:35;;;;;;;9.30;5.73;;;13.90;99.90;;;;;;7287600;19;20190;-90
2023/05/21 03:58:01;;;;;;;7.80;5.00;;;13.90;99.90;;;;;;7292041;19;20528;-89
2023/05/21 04:00:27;;;;;;;10.77;4.87;;;13.70;99.90;;;;;;7308533;19;20202;-89
2023/05/21 04:02:53;;;;;;;6.50;4.40;;;13.60;99.90;;;;;;7285593;19;20184;-90
2023/05/21 04:05:19;;;;;;;9.80;4.97;;;13.50;99.90;;;;;;7287105;19;20204;-90
2023/05/21 04:07:45;;;;;;;9.07;4.97;;;13.50;99.90;;;;;;7285905;19;20198;-90
2023/05/21 04:10:11;;;;;;;11.97;5.60;;;13.60;99.90;;;;;;7286305;19;20191;-91
2023/05/21 04:12:37;;;;;;;9.53;5.63;;;13.60;99.90;;;;;;7286338;19;20699;-90
2023/05/21 04:15:04;;;;;;;10.67;5.73;;;13.70;99.90;;;;;;7283805;19;20191;-90
2023/05/21 04:17:30;;;;;;;9.93;6.07;;;13.80;99.90;;;;;;7305531;19;20194;-90
2023/05/21 04:19:56;;;;;;;8.70;5.47;;;13.80;99.90;;;;;;7302818;19;20188;-91
2023/05/21 04:22:25;;;;;;;10.57;6.70;;;13.90;99.90;;;;;;7292398;19;20209;-90
2023/05/21 04:24:53;;;;;;;9.77;5.47;;;14.00;99.90;;;;;;7293270;19;20182;-89
2023/05/21 04:27:24;;;;;;;9.43;5.30;;;14.10;99.90;;;;;;7293923;19;20182;-89
2023/05/21 04:29:51;;;;;;;11.47;5.57;;;14.20;99.90;;;;;;7292053;19;20345;-89
2023/05/21 04:32:16;;;;;;;13.07;6.37;;;14.30;99.90;;;;;;7293701;19;20185;-89
2023/05/21 04:34:43;;;;;;;12.90;6.17;;;14.40;99.90;;;;;;7293421;19;20205;-89
2023/05/21 04:37:09;;;;;;;12.57;6.37;;;14.40;99.90;;;;;;7292480;19;20192;-89
2023/05/21 04:39:35;;;;;;;11.13;5.50;;;14.50;99.90;;;;;;7293394;19;20207;-89
2023/05/21 04:42:02;;;;;;;11.17;5.70;;;14.60;99.90;;;;;;7301828;19;20660;-89
2023/05/21 04:44:28;;;;;;;9.60;5.47;;;14.60;99.90;;;;;;7315759;19;20197;-90
2023/05/21 04:46:56;;;;;;;10.63;5.50;;;14.70;99.90;;;;;;7292967;19;20200;-89
2023/05/21 04:49:23;;;;;;;9.17;5.03;;;14.70;99.90;;;;;;7292682;19;20681;-89
2023/05/21 04:51:49;;;;;;;10.57;5.90;;;14.70;99.90;;;;;;7292348;19;20198;-90
2023/05/21 04:54:15;;;;;;;12.47;5.63;;;14.70;99.90;;;;;;7293392;19;20193;-89
2023/05/21 04:56:41;;;;;;;11.00;6.00;;;14.80;99.90;;;;;;7292623;19;20184;-89
2023/05/21 04:59:08;;;;;;;10.17;5.93;;;14.70;99.90;;;;;;7292493;19;20201;-90
2023/05/21 05:01:37;;;;;;;9.43;5.80;;;14.70;99.90;;;;;;7291954;19;20252;-89
2023/05/21 05:04:03;;;;;;;10.13;6.50;;;14.70;99.90;;;;;;7290667;19;20193;-89
2023/05/21 05:06:29;;;;;;;10.70;6.30;;;14.80;99.90;;;;;;7314925;19;20200;-90
2023/05/21 05:08:55;;;;;;;11.60;6.17;;;15.00;99.90;;;;;;7292842;19;20188;-89
2023/05/21 05:11:22;;;;;;;11.03;6.67;;;15.10;99.90;;;;;;7291678;19;20692;-89
2023/05/21 05:13:47;;;;;;;10.10;6.60;;;15.20;99.90;;;;;;7291995;19;20204;-90
2023/05/21 05:16:16;;;;;;;12.17;6.70;;;15.40;99.90;;;;;;7290928;19;20181;-89
2023/05/21 05:18:42;;;;;;;13.57;6.33;;;15.50;99.90;;;;;;7291985;19;20264;-89
2023/05/21 05:21:08;;;;;;;12.00;6.50;;;15.40;99.90;;;;;;7291101;19;20202;-89
2023/05/21 05:23:34;;;;;;;10.83;6.47;;;15.30;99.90;;;;;;7289044;19;20185;-90
2023/05/21 05:26:00;;;;;;;12.03;6.73;;;15.20;99.90;;;;;;7313806;19;20256;-90
2023/05/21 05:28:26;;;;;;;10.40;6.27;;;15.00;99.90;;;;;;7291688;19;20192;-91
2023/05/21 05:30:53;;;;;;;10.43;6.70;;;14.90;99.90;;;;;;7289568;19;20662;-90
2023/05/21 05:33:23;;;;;;;12.17;7.13;;;15.00;99.90;;;;;;7290585;19;20193;-90
2023/05/21 05:35:49;;;;;;;9.93;6.37;;;15.30;99.90;;;;;;7289545;19;20194;-90
2023/05/21 05:38:16;;;;;;;12.47;6.60;;;15.50;99.90;;;;;;7290366;19;20202;-90
2023/05/21 05:40:42;;;;;;;12.27;6.80;;;15.70;99.90;;;;;;7290406;19;20199;-90
2023/05/21 05:43:07;;;;;;;11.53;7.10;;;15.80;99.90;;;;;;7289315;19;20251;-90
2023/05/21 05:45:33;;;;;;;12.00;7.03;;;15.90;99.90;;;;;;7290710;19;20189;-90
2023/05/21 05:48:01;;;;;;;14.30;7.30;;;16.10;99.90;;;;;;7312345;19;20188;-89
2023/05/21 05:50:27;;;;;;;15.03;6.93;;;15.90;99.90;;;;;;7294346;19;20197;-89
2023/05/21 05:52:52;;;;;;;11.93;7.20;;;15.90;99.90;;;;;;7290454;19;20206;-90
2023/05/21 05:55:18;;;;;;;11.00;7.07;;;16.10;99.90;;;;;;7289677;19;20193;-90
2023/05/21 05:57:44;;;;;;;11.13;7.00;;;16.30;99.90;;;;;;7288976;19;20556;-90
2023/05/21 06:00:13;;;;;;;13.53;7.30;;;16.50;99.90;;;;;;7289869;19;20197;-90
2023/05/21 06:02:42;;;;;;;13.60;7.50;;;16.50;99.90;;;;;;7289620;19;20193;-90
2023/05/21 06:05:09;;;;;;;10.10;6.93;;;16.70;99.90;;;;;;7289861;19;20272;-89
2023/05/21 06:07:40;;;;;;;13.50;7.17;;;17.10;99.90;;;;;;7290277;19;20581;-88
2023/05/21 06:10:06;;;;;;;11.67;6.93;;;17.30;99.90;;;;;;7289525;19;20188;-89
2023/05/21 06:12:33;;;;;;;13.47;6.70;;;17.50;99.90;;;;;;7294067;19;20216;-89
2023/05/21 06:14:58;;;;;;;10.23;6.33;;;17.70;99.90;;;;;;7312582;19;20209;-89
2023/05/21 06:17:24;;;;;;;11.33;6.70;;;17.70;99.90;;;;;;7289333;19;20196;-88
2023/05/21 06:19:53;;;;;;;11.10;5.93;;;17.80;99.90;;;;;;7289604;19;20665;-89
2023/05/21 06:22:19;;;;;;;12.80;6.47;;;17.90;99.90;;;;;;7288652;19;20200;-88
2023/05/21 06:24:45;;;;;;;11.87;6.87;;;17.80;99.90;;;;;;7291564;19;20201;-89
2023/05/21 06:27:11;;;;;;;11.93;6.77;;;18.10;99.90;;;;;;7289544;19;20187;-88
2023/05/21 06:29:39;;;;;;;10.30;6.60;;;18.30;99.90;;;;;;7288194;19;20189;-89
2023/05/21 06:32:07;;;;;;;13.33;6.70;;;18.40;99.90;;;;;;7288331;19;20268;-89
2023/05/21 06:34:33;;;;;;;12.93;6.80;;;18.50;99.90;;;;;;7288150;19;20213;-89
2023/05/21 06:36:58;;;;;;;11.33;6.47;;;18.80;99.90;;;;;;7310431;19;20656;-89
2023/05/21 06:39:25;;;;;;;11.53;6.63;;;19.10;99.90;;;;;;7288872;19;20185;-89
2023/05/21 06:41:52;;;;;;;11.13;6.27;;;19.50;99.90;;;;;;7288094;19;20521;-89
2023/05/21 06:44:36;;;;;;;9.20;5.43;;;19.60;99.90;;;;;;7187206;19;2004688;-89
2023/05/21 06:47:25;;;;;;;12.77;6.30;;;19.70;99.90;;;;;;7288778;19;20191;-89
2023/05/21 06:49:50;;;;;;;11.20;6.00;;;20.00;99.90;;;;;;7288962;19;20538;-90
2023/05/21 06:52:16;;;;;;;10.17;6.30;;;20.50;99.90;;;;;;7287688;19;20212;-89
2023/05/21 06:54:43;;;;;;;11.93;6.30;;;21.20;99.90;;;;;;7289670;19;20213;-90
2023/05/21 06:57:08;;;;;;;10.67;5.93;;;21.20;99.90;;;;;;7288170;19;20204;-90
2023/05/21 06:59:34;;;;;;;10.07;6.17;;;21.00;99.90;;;;;;7288035;19;20180;-89
2023/05/21 07:02:03;;;;;;;10.67;6.20;;;21.20;99.90;;;;;;7309982;19;20679;-90
2023/05/21 07:04:30;;;;;;;9.73;6.13;;;21.70;99.90;;;;;;7288864;19;20205;-90
2023/05/21 07:06:56;;;;;;;13.10;6.77;;;21.60;99.90;;;;;;7288230;19;20201;-89
2023/05/21 07:09:26;;;;;;;9.70;6.23;;;21.70;99.90;;;;;;7286449;19;20192;-90
2023/05/21 07:11:52;;;;;;;9.53;5.90;;;22.00;99.90;;;;;;7287389;19;20190;-90
2023/05/21 07:14:18;;;;;;;11.23;5.93;;;21.90;99.90;;;;;;7287496;19;20216;-90
2023/05/21 07:16:43;;;;;;;11.93;6.33;;;21.40;99.90;;;;;;7286944;19;20184;-90
2023/05/21 07:19:09;;;;;;;10.60;6.20;;;21.10;99.90;;;;;;7289480;19;20185;-88
2023/05/21 07:21:35;;;;;;;11.03;5.67;;;21.60;99.90;;;;;;7288015;19;20639;-88
2023/05/21 07:24:01;;;;;;;8.87;5.93;;;21.90;99.90;;;;;;7303489;19;20195;-90
2023/05/21 07:26:27;;;;;;;11.60;5.53;;;22.20;99.90;;;;;;7302916;19;20181;-88
2023/05/21 07:28:53;;;;;;;12.00;6.30;;;23.00;99.90;;;;;;7287071;19;20184;-89
2023/05/21 07:31:19;;;;;;;11.97;5.90;;;23.90;99.90;;;;;;7287657;19;20260;-89
2023/05/21 07:33:48;;;;;;;10.93;6.32;;;23.80;99.90;;;;;;7288493;19;20215;-89
2023/05/21 07:36:16;;;;;;;10.33;5.93;;;23.60;99.90;;;;;;7286927;19;20197;-89
2023/05/21 07:38:43;;;;;;;11.30;6.10;;;24.10;99.90;;;;;;7288429;19;20213;-89
2023/05/21 07:41:09;;;;;;;10.37;6.00;;;23.40;99.90;;;;;;7286912;19;20632;-89
2023/05/21 07:43:35;;;;;;;12.33;6.23;;;23.10;99.90;;;;;;7287121;19;20290;-89
2023/05/21 07:46:01;;;;;;;10.10;6.23;;;23.70;99.90;;;;;;7302514;19;20276;-90
2023/05/21 07:48:28;;;;;;;10.60;5.70;;;24.50;99.90;;;;;;7311330;19;20192;-88
2023/05/21 07:50:58;;;;;;;10.50;5.85;;;25.00;99.90;;;;;;7287737;19;20197;-90
2023/05/21 07:53:24;;;;;;;9.82;6.35;;;25.20;99.90;;;;;;7289287;19;20293;-90
2023/05/21 07:55:50;;;;;;;9.40;6.30;;;25.00;99.90;;;;;;7294024;19;20196;-90
2023/05/21 07:58:22;;;;;;;9.40;6.15;;;25.50;99.90;;;;;;7299078;19;20224;-91
2023/05/21 08:00:49;;;;;;;9.75;6.13;;;26.40;99.90;;;;;;7299217;19;20196;-90
2023/05/21 08:03:18;;;;;;;12.73;6.43;;;26.60;99.90;;;;;;7292669;19;20220;-89
2023/05/21 08:05:48;;;;;;;9.98;6.28;;;26.20;99.90;;;;;;7293490;19;20189;-90
2023/05/21 08:08:16;;;;;;;10.40;6.68;;;25.30;99.90;;;;;;7294608;19;20193;-89
2023/05/21 08:10:44;;;;;;;12.23;6.57;;;24.70;99.90;;;;;;7295990;19;20206;-89
2023/05/21 08:13:11;;;;;;;12.43;7.03;;;24.90;99.90;;;;;;7295867;19;20184;-90
2023/05/21 08:15:37;;;;;;;11.07;6.68;;;25.30;99.90;;;;;;7294492;19;20194;-89
2023/05/21 08:18:04;;;;;;;10.75;7.05;;;25.60;99.90;;;;;;7297391;19;20205;-89
2023/05/21 08:20:32;;;;;;;11.07;6.32;;;26.30;99.90;;;;;;7316297;19;20199;-90
2023/05/21 08:23:01;;;;;;;11.75;6.60;;;27.20;99.90;;;;;;7291317;19;20201;-87
2023/05/21 08:25:34;;;;;;;10.25;6.35;;;26.90;99.90;;;;;;7272026;19;20188;-89
2023/05/21 08:28:02;;;;;;;11.82;6.85;;;26.40;99.90;;;;;;7307063;19;20215;-89
2023/05/21 08:30:29;;;;;;;10.63;6.22;;;26.90;99.90;;;;;;7314410;19;20644;-89
2023/05/21 08:32:55;;;;;;;8.70;6.00;;;27.70;99.90;;;;;;7290928;19;20188;-89
2023/05/21 08:35:22;;;;;;;9.63;6.00;;;28.10;99.90;;;;;;7293588;19;20269;-89
2023/05/21 08:38:04;;;;;;;13.32;6.88;;;28.40;99.90;;;;;;7270036;19;20218;-89
2023/05/21 08:40:46;;;;;;;10.55;6.40;;;28.10;99.90;;;;;;7290833;19;20193;-90
2023/05/21 08:43:15;;;;;;;11.57;7.05;;;27.30;99.90;;;;;;7291575;19;20687;-89
2023/05/21 08:45:52;;;;;;;11.77;6.68;;;26.50;99.90;;;;;;7290748;19;20200;-89
2023/05/21 08:48:40;;;;;;;12.48;7.18;;;27.10;99.90;;;;;;7294190;19;20652;-90
2023/05/21 08:51:06;;;;;;;11.25;6.85;;;26.40;99.90;;;;;;7268428;19;20196;-89
2023/05/21 08:53:49;;;;;;;10.70;6.88;;;26.50;99.90;;;;;;7290742;19;20181;-90
2023/05/21 08:56:23;;;;;;;9.98;6.10;;;27.10;99.90;;;;;;7289053;19;20971;-90
2023/05/21 08:59:07;;;;;;;11.68;7.00;;;27.50;99.90;;;;;;7289865;19;20551;-89
2023/05/21 09:01:37;;;;;;;13.27;6.80;;;28.40;99.90;;;;;;7270477;19;20192;-89
2023/05/21 09:04:19;;;;;;;12.13;6.50;;;29.20;99.90;;;;;;7293675;19;20185;-90
2023/05/21 09:06:56;;;;;;;11.50;7.22;;;29.40;99.90;;;;;;7290093;19;20203;-90
2023/05/21 09:09:52;;;;;;;10.63;7.43;;;29.10;99.90;;;;;;7187913;19;2004854;-89
2023/05/21 09:12:22;;;;;;;11.60;6.90;;;28.70;99.90;;;;;;7292058;19;20573;-91
2023/05/21 09:14:51;;;;;;;12.15;7.00;;;28.50;99.90;;;;;;7291027;19;20211;-90
2023/05/21 09:17:20;;;;;;;9.98;7.00;;;28.90;99.90;;;;;;7291696;19;20196;-90
2023/05/21 09:20:27;;;;;;;13.32;7.75;;;29.70;99.90;;;;;;7290484;19;20225;-90
2023/05/21 09:23:02;;;;;;;11.57;7.50;;;28.90;99.90;;;;;;7188636;19;2004409;-90
2023/05/21 09:25:28;;;;;;;12.68;8.05;;;29.40;99.90;;;;;;7291880;19;20211;-90
2023/05/21 09:27:58;;;;;;;12.73;8.00;;;29.40;99.60;;;;;;7291926;19;20189;-90
2023/05/21 09:30:27;;;;;;;12.57;8.13;;;29.30;99.50;;;;;;7290591;19;20284;-90
2023/05/21 09:32:59;;;;;;;12.25;8.55;;;27.80;99.90;;;;;;7290733;19;20214;-90
2023/05/21 09:35:25;;;;;;;12.95;7.85;;;27.60;99.90;;;;;;7291140;19;20200;-90
2023/05/21 09:37:52;;;;;;;11.77;7.88;;;28.60;99.90;;;;;;7290972;19;20223;-90
2023/05/21 09:40:20;;;;;;;12.75;8.18;;;28.80;99.90;;;;;;7292651;19;20196;-89
2023/05/21 09:42:51;;;;;;;11.90;8.15;;;29.00;99.90;;;;;;7291598;19;20184;-91
2023/05/21 09:45:23;;;;;;;11.55;7.82;;;29.00;99.90;;;;;;7291161;19;20652;-92
2023/05/21 09:47:55;;;;;;;13.27;9.18;;;29.30;99.90;;;;;;7291866;19;20192;-91
2023/05/21 09:50:25;;;;;;;13.48;8.68;;;29.80;99.70;;;;;;7290670;19;20177;-91
2023/05/21 09:52:54;;;;;;;12.07;8.38;;;29.50;99.10;;;;;;7293771;19;22402;-88
2023/05/21 09:55:25;;;;;;;12.95;8.23;;;29.50;99.20;;;;;;7295795;19;20185;-91
2023/05/21 09:57:52;;;;;;;13.88;9.20;;;29.60;99.50;;;;;;7293194;19;20208;-91
2023/05/21 10:00:21;;;;;;;16.58;9.82;;;29.90;99.10;;;;;;7293888;19;20189;-91
2023/05/21 10:02:54;;;;;;;15.43;9.95;;;29.10;99.10;;;;;;7289637;19;20188;-92
2023/05/21 10:05:20;;;;;;;13.55;9.35;;;28.70;99.90;;;;;;7291170;19;20648;-89
2023/05/21 10:07:50;;;;;;;14.65;9.25;;;28.40;99.90;;;;;;7295726;19;20666;-90
2023/05/21 10:10:18;;;;;;;12.43;8.48;;;28.80;99.90;;;;;;7291493;19;20185;-91
2023/05/21 10:12:46;;;;;;;12.63;7.90;;;28.90;99.90;;;;;;7289249;19;20181;-90
2023/05/21 10:15:16;;;;;;;14.77;8.30;;;29.30;99.90;;;;;;7289549;19;20189;-90
2023/05/21 10:17:46;;;;;;;12.38;8.63;;;30.20;99.90;;;;;;7288010;19;20189;-90
2023/05/21 10:20:12;;;;;;;13.20;9.65;;;29.60;98.50;;;;;;7290041;19;20207;-91
2023/05/21 10:22:39;;;;;;;15.90;8.93;;;29.30;99.20;;;;;;7288759;19;20677;-91
2023/05/21 10:25:06;;;;;;;13.48;9.75;;;29.40;98.80;;;;;;7289408;19;20641;-91
2023/05/21 10:27:33;;;;;;;14.52;8.93;;;29.70;99.80;;;;;;7303028;19;20653;-92
2023/05/21 10:30:00;;;;;;;18.17;9.52;;;30.20;99.90;;;;;;7309491;19;20193;-91
2023/05/21 10:32:26;;;;;;;12.45;9.27;;;31.20;97.40;;;;;;7286130;19;20681;-92
2023/05/21 10:34:56;;;;;;;13.95;9.68;;;30.50;97.10;;;;;;7289406;19;20604;-92
2023/05/21 10:37:25;;;;;;;13.88;10.13;;;30.10;98.00;;;;;;7288285;19;20310;-92
2023/05/21 10:39:51;;;;;;;14.27;10.30;;;29.80;97.40;;;;;;7288336;19;20220;-92
2023/05/21 10:42:22;;;;;;;17.38;11.02;;;29.50;97.80;;;;;;7288786;19;20196;-91
2023/05/21 10:44:58;;;;;;;14.68;10.32;;;28.30;98.80;;;;;;7288998;19;20189;-91
2023/05/21 10:47:34;;;;;;;14.73;10.45;;;28.40;99.80;;;;;;7290039;19;20205;-92
2023/05/21 10:50:32;;;;;;;15.38;10.73;;;28.70;99.90;;;;;;7287895;19;20679;-91
2023/05/21 10:53:06;;;;;;;15.38;9.80;;;29.40;99.90;;;;;;7186124;19;2004515;-91
2023/05/21 10:55:52;;;;;;;14.52;10.20;;;30.00;98.90;;;;;;7285040;19;20188;-91
2023/05/21 10:58:43;;;;;;;15.68;10.88;;;28.80;98.80;;;;;;7286705;19;20184;-91
2023/05/21 11:01:10;;;;;;;15.93;10.70;;;28.20;99.40;;;;;;7185249;19;2004837;-91
2023/05/21 11:03:39;;;;;;;15.23;10.60;;;28.10;99.90;;;;;;7288453;19;20189;-91
2023/05/21 11:06:08;;;;;;;13.88;10.50;;;29.30;99.90;;;;;;7287412;19;20643;-91
2023/05/21 11:08:42;;;;;;;14.77;10.18;;;29.30;99.90;;;;;;7289623;19;20181;-92
2023/05/21 11:11:13;;;;;;;14.25;10.38;;;28.70;99.90;;;;;;7291353;19;20176;-90
2023/05/21 11:13:50;;;;;;;14.80;10.98;;;28.40;99.90;;;;;;7305925;19;20264;-92
2023/05/21 11:16:16;;;;;;;16.60;11.90;;;28.00;99.90;;;;;;7289176;19;20185;-90
2023/05/21 11:18:48;;;;;;;15.90;11.30;;;27.60;99.90;;;;;;7290324;19;20199;-92
2023/05/21 11:21:16;;;;;;;17.92;11.50;;;27.00;99.90;;;;;;7297027;19;20599;-91
2023/05/21 11:23:56;;;;;;;17.25;11.20;;;26.80;99.90;;;;;;7294315;19;20643;-92
2023/05/21 11:26:27;;;;;;;18.10;11.63;;;26.90;99.90;;;;;;7297158;19;20200;-93
2023/05/21 11:29:05;;;;;;;17.80;12.30;;;27.10;99.90;;;;;;7294121;19;20209;-91
2023/05/21 11:31:36;;;;;;;18.50;12.60;;;26.50;99.90;;;;;;7311310;19;20189;-91
2023/05/21 11:34:33;;;;;;;15.60;11.52;;;25.80;99.90;;;;;;7304400;19;20204;-91
2023/05/21 11:37:29;;;;;;;17.67;12.02;;;25.60;99.90;;;;;;7311286;19;20185;-91
2023/05/21 11:39:57;;;;;;;19.65;12.88;;;25.70;99.90;;;;;;7209686;19;2004019;-92
2023/05/21 11:42:38;;;;;;;22.73;15.27;;;25.60;99.90;;;;;;7312763;19;20223;-91
2023/05/21 11:45:04;;;;;;;18.88;11.15;;;25.70;99.90;;;;;;7280231;19;20195;-91
2023/05/21 11:47:31;;;;;;;20.25;15.18;;;25.60;99.90;;;;;;7316212;19;20210;-91
2023/05/21 11:50:00;;;;;;;21.65;15.00;;;25.60;99.90;;;;;;7289054;19;20214;-91
2023/05/21 11:52:29;;;;;;;17.38;12.02;;;26.10;99.90;;;;;;7287336;19;20181;-92
2023/05/21 11:54:56;;;;;;;18.80;12.23;;;26.30;99.90;;;;;;7287381;19;20216;-92
2023/05/21 11:57:25;;;;;;;18.42;12.75;;;26.30;99.90;;;;;;7288463;19;25631;-91
2023/05/21 11:59:51;;;;;;;18.80;13.30;;;26.10;99.90;;;;;;7288727;19;20193;-91
2023/05/21 12:02:19;;;;;;;18.45;13.75;;;25.60;99.90;;;;;;7288770;19;20188;-91
2023/05/21 12:04:47;;;;;;;18.45;12.73;;;25.20;99.90;;;;;;7289546;19;21255;-90
2023/05/21 12:07:14;;;;;;;19.30;12.88;;;25.10;99.90;;;;;;7288801;19;20196;-90
2023/05/21 12:10:06;;;;;;;21.02;13.93;;;25.10;99.90;;;;;;7287695;19;20252;-91
2023/05/21 12:12:32;;;;;;;19.20;13.90;;;25.30;99.90;;;;;;7281533;19;20253;-92
2023/05/21 12:14:58;;;;;;;23.75;14.60;;;25.50;99.90;;;;;;7300939;19;20289;-93
2023/05/21 12:17:25;;;;;;;18.80;13.63;;;25.70;99.90;;;;;;7297172;19;20220;-91
2023/05/21 12:19:53;;;;;;;18.15;13.05;;;25.50;99.90;;;;;;7288959;19;20211;-92
2023/05/21 12:22:20;;;;;;;22.58;15.00;;;25.40;99.90;;;;;;7285599;19;20237;-91
2023/05/21 12:24:47;;;;;;;18.73;13.10;;;25.50;99.90;;;;;;7283755;19;20214;-90
2023/05/21 12:27:15;;;;;;;20.42;13.98;;;25.50;99.90;;;;;;7285459;19;20180;-91
2023/05/21 12:29:48;;;;;;;18.67;14.50;;;25.50;99.90;;;;;;7285628;19;20204;-91
2023/05/21 12:32:15;;;;;;;20.92;14.05;;;25.50;99.90;;;;;;7287003;19;20181;-90
2023/05/21 12:34:53;;;;;;;18.88;13.93;;;25.50;99.90;;;;;;7287305;19;20192;-90
2023/05/21 12:37:24;;;;;;;19.48;13.93;;;25.30;99.90;;;;;;7285550;19;20192;-90
2023/05/21 12:39:52;;;;;;;19.38;14.32;;;25.20;99.90;;;;;;7287793;19;20192;-90
2023/05/21 12:42:28;;;;;;;22.35;14.23;;;25.20;99.90;;;;;;7293057;19;20217;-90
2023/05/21 12:44:55;;;;;;;19.27;12.85;;;25.00;99.90;;;;;;7292960;19;20184;-90
2023/05/21 12:47:25;;;;;;;18.17;12.38;;;25.00;99.90;;;;;;7293148;19;20209;-91